Home > Products > Valid Products > TAF

000
FTUS42 TJSJ 290538
TAFKPK
TAF
TKPK 290538Z 2906/3006 07016KT P6SM FEW020
     FM291300 10013KT P6SM SCT022
      AMD NOT SKED TIL 291100=



000
FTUS42 TJSJ 290538
TAFJPS
TAF
TJPS 290538Z 2906/3006 00000KT P6SM FEW025 FEW050
     FM291500 13012KT P6SM FEW030 SCT060
     FM292300 09007KT P6SM FEW030 SCT060=



000
FTUS42 TJSJ 290538
TAFJSJ
TAF
TJSJ 290538Z 2906/3006 10006KT P6SM FEW022 SCT030
     FM291300 09016KT P6SM SCT025
     FM292230 08011KT P6SM FEW030=



000
FTUS42 TJSJ 290538
TAFJBQ
TAF
TJBQ 290538Z 2906/3006 08009KT P6SM FEW030
     FM291400 07016KT P6SM SCT025
     FM292300 09008KT P6SM SCT025=



000
FTUS42 TJSJ 290538
TAFIST
TAF
TIST 290538Z 2906/3006 00000KT P6SM FEW040
     FM291300 11012KT P6SM SCT025
     FM292300 09008KT P6SM FEW025=



000
FTUS42 TJSJ 290538
TAFISX
TAF
TISX 290538Z 2906/3006 07007KT P6SM SKC
     FM291300 10013KT P6SM SCT025
     FM292300 07008KT P6SM FEW025=



000
FTUS42 TJSJ 290538
TAFJMZ
TAF
TJMZ 290538Z 2906/3006 11011KT P6SM SCT040
     FM291530 27010KT P6SM SCT025 BKN040
     FM292200 06006KT P6SM SCT025 SCT040
      AMD NOT SKED TIL 291500=



000
FTUS42 TJSJ 290538
TAFNCM
TAF
TNCM 290538Z 2906/3006 08008KT P6SM SCT019
     FM291300 08013KT P6SM SCT020
     FM292300 07009KT P6SM SCT022 SCT040=



000
FTUS42 TJSJ 282335
TAFIST
TAF
TIST 282335Z 2900/2924 07008KT P6SM FEW030
     FM291300 11012KT P6SM SCT025
     FM292300 09008KT P6SM FEW025=



000
FTUS42 TJSJ 282335
TAFJBQ
TAF
TJBQ 282335Z 2900/2924 09013KT P6SM SCT030
     FM290200 08009KT P6SM FEW030
     FM291400 07016KT P6SM SCT025
     FM292300 09008KT P6SM SCT025=



000
FTUS42 TJSJ 282335
TAFJPS
TAF
TJPS 282335Z 2900/2924 14006KT P6SM FEW030
     FM291500 13012KT P6SM FEW030 SCT060
     FM292300 09007KT P6SM FEW030 SCT060
      AMD NOT SKED TIL 290300=



000
FTUS42 TJSJ 282335
TAFJSJ
TAF
TJSJ 282335Z 2900/2924 06012KT P6SM FEW030 SCT100
     FM290200 10006KT P6SM SCT030
     FM291300 09016KT P6SM SCT025
     FM292230 08011KT P6SM FEW030=



000
FTUS42 TJSJ 282335
TAFKPK
TAF
TKPK 282335Z 2900/2924 06014KT P6SM FEW020
     FM290200 07011KT P6SM SCT020
     FM291300 10013KT P6SM SCT022
      AMD NOT SKED 2902/2911=



000
FTUS42 TJSJ 282335
TAFNCM
TAF
TNCM 282335Z 2900/2924 09008KT P6SM FEW022
     FM291300 08013KT P6SM SCT020
     FM292300 07009KT P6SM SCT022 SCT040=



000
FTUS42 TJSJ 282335
TAFJMZ
TAF
TJMZ 282335Z 2900/2924 VRB06KT P6SM FEW030
     FM291530 27010KT P6SM SCT025 BKN040
     FM292200 06006KT P6SM SCT025 SCT040
      AMD NOT SKED TIL 291500=



000
FTUS42 TJSJ 282335
TAFISX
TAF
TISX 282335Z 2900/2924 06007KT P6SM SCT025
     FM291300 10013KT P6SM SCT025
     FM292300 07008KT P6SM FEW025=



000
FTUS42 TJSJ 281908 AAB
TAFJSJ
TAF AMD
TJSJ 281908Z 2819/2918 07018KT P6SM FEW030 SCT050
     FM290000 10006KT P6SM SCT030
     FM291300 09016KT P6SM SCT025=



000
FTUS42 TJSJ 281908 AAA
TAFJPS
TAF AMD
TJPS 281908Z 2819/2918 16015KT P6SM FEW030 SCT060
     FM282300 09007KT P6SM FEW030 SCT060
     FM291500 13012KT P6SM FEW030 SCT060
      AMD NOT SKED TIL 290300=



000
FTUS42 TJSJ 281740
TAFISX
TAF
TISX 281740Z 2818/2918 10015KT P6SM SCT025
     FM282300 07008KT P6SM FEW025
     FM291300 10013KT P6SM SCT025=



000
FTUS42 TJSJ 281740
TAFIST
TAF
TIST 281740Z 2818/2918 11014KT P6SM SCT025
     FM282300 09008KT P6SM FEW025
     FM291300 11012KT P6SM SCT025=



000
FTUS42 TJSJ 281740
TAFJBQ
TAF
TJBQ 281740Z 2818/2918 08018KT P6SM SCT025
     FM282300 09008KT P6SM SCT025
     FM291400 07016KT P6SM SCT025
      AMD NOT SKED 2902/2911=



000
FTUS42 TJSJ 281740
TAFJSJ
TAF
TJSJ 281740Z 2818/2918 07016KT P6SM FEW030 SCT050
     FM290000 10006KT P6SM SCT030
     FM291300 09016KT P6SM SCT025=



000
FTUS42 TJSJ 281740
TAFKPK
TAF
TKPK 281740Z 2818/2918 07010KT P6SM SCT025
      AMD NOT SKED 2902/2911=



000
FTUS42 TJSJ 281740
TAFJMZ
TAF
TJMZ 281740Z 2818/2918 27010KT P6SM VCSH SCT025 BKN040
     FM282200 06006KT P6SM SCT025 SCT040
     FM291530 27010KT P6SM SCT025 BKN040
      AMD NOT SKED 2823/2915=



000
FTUS42 TJSJ 281740
TAFJPS
TAF
TJPS 281740Z 2818/2918 14013KT P6SM FEW030 SCT060
     FM282300 09007KT P6SM FEW030 SCT060
     FM291500 13012KT P6SM FEW030 SCT060
      AMD NOT SKED TIL 290300=



000
FTUS42 TJSJ 281740
TAFNCM
TAF
TNCM 281740Z 2818/2918 09010KT P6SM SCT021
      TEMPO 2818/2820 BKN020=



000
FTUS42 TJSJ 281715 AAB
TAFNCM
TAF AMD
TNCM 281715Z 2817/2912 09009KT P6SM FEW020
      TEMPO 2817/2819 BKN020=



000
FTUS42 TJSJ 281600 AAB
TAFIST
TAF AMD
TIST 281600Z 2816/2912 11015KT P6SM SCT030
     FM282300 08010KT P6SM FEW025=



000
FTUS42 TJSJ 281600 AAB
TAFIST
TAF AMD
TIST 281600Z 2816/2912 11015KT P6SM SCT030
     FM282300 08010KT P6SM FEW025=



000
FTUS42 TJSJ 281549 AAA
TAFNCM
TAF AMD
TNCM 281549Z 2816/2912 09009KT P6SM FEW020
      TEMPO 2816/2817 BKN018=



000
FTUS42 TJSJ 281549 AAA
TAFNCM
TAF AMD
TNCM 281549Z 2816/2912 09009KT P6SM FEW020
      TEMPO 2816/2817 BKN018=



000
FTUS42 TJSJ 281511 AAB
TAFJSJ
TAF AMD
TJSJ 281511Z 2815/2912 09018KT P6SM FEW030
     FM282230 10007KT P6SM FEW025=



000
FTUS42 TJSJ 281449 AAA
TAFIST
TAF AMD
TIST 281449Z 2815/2912 09015KT P6SM FEW030
     FM282300 08010KT P6SM FEW025=



000
FTUS42 TJSJ 281139
TAFIST
TAF
TIST 281139Z 2812/2912 09010KT P6SM FEW025
     FM281300 11015KT P6SM FEW030
     FM282300 08010KT P6SM FEW025=



000
FTUS42 TJSJ 281139
TAFJPS
TAF
TJPS 281139Z 2812/2912 VRB05KT P6SM FEW030
     FM281430 14015KT P6SM FEW030
     FM282230 05005KT P6SM FEW030
      AMD NOT SKED TIL 290300=



000
FTUS42 TJSJ 281139
TAFJBQ
TAF
TJBQ 281139Z 2812/2912 10010KT P6SM FEW025
     FM281430 08020KT P6SM FEW025
     FM282330 09010KT P6SM FEW025
      AMD NOT SKED 2902/2911=



000
FTUS42 TJSJ 281139
TAFNCM
TAF
TNCM 281139Z 2812/2912 09009KT P6SM FEW020=



000
FTUS42 TJSJ 281139
TAFKPK
TAF
TKPK 281139Z 2812/2912 07014KT P6SM SCT018
      TEMPO 2812/2814 BKN018
      AMD NOT SKED 2902/2911=



000
FTUS42 TJSJ 281139
TAFJMZ
TAF
TJMZ 281139Z 2812/2912 07006KT P6SM FEW040
     FM281600 28010KT P6SM VCSH SCT025 BKN040
     FM282230 07005KT P6SM FEW025
      AMD NOT SKED=



000
FTUS42 TJSJ 281139
TAFJSJ
TAF
TJSJ 281139Z 2812/2912 09010KT P6SM FEW025
     FM281430 07018KT P6SM FEW030
     FM282230 10007KT P6SM FEW025=



000
FTUS42 TJSJ 281139
TAFJBQ
TAF
TJBQ 281139Z 2812/2912 10010KT P6SM FEW025
     FM281430 08020KT P6SM FEW025
     FM282330 09010KT P6SM FEW025
      AMD NOT SKED 2902/2911=



000
FTUS42 TJSJ 281139
TAFISX
TAF
TISX 281139Z 2812/2912 09011KT P6SM FEW025
     FM281300 10018KT P6SM FEW025
     FM282300 07010KT P6SM FEW025=



000
FTUS42 TJSJ 281139
TAFJMZ
TAF
TJMZ 281139Z 2812/2912 07006KT P6SM FEW040
     FM281600 28010KT P6SM VCSH SCT025 BKN040
     FM282230 07005KT P6SM FEW025
      AMD NOT SKED=



000
FTUS42 TJSJ 281139
TAFKPK
TAF
TKPK 281139Z 2812/2912 07014KT P6SM SCT018
      TEMPO 2812/2814 BKN018
      AMD NOT SKED 2902/2911=



000
FTUS42 TJSJ 281139
TAFJPS
TAF
TJPS 281139Z 2812/2912 VRB05KT P6SM FEW030
     FM281430 14015KT P6SM FEW030
     FM282230 05005KT P6SM FEW030
      AMD NOT SKED TIL 290300=



000
FTUS42 TJSJ 281139
TAFNCM
TAF
TNCM 281139Z 2812/2912 09009KT P6SM FEW020=



000
FTUS42 TJSJ 281139
TAFIST
TAF
TIST 281139Z 2812/2912 09010KT P6SM FEW025
     FM281300 11015KT P6SM FEW030
     FM282300 08010KT P6SM FEW025=



000
FTUS42 TJSJ 281139
TAFJSJ
TAF
TJSJ 281139Z 2812/2912 09010KT P6SM FEW025
     FM281430 07018KT P6SM FEW030
     FM282230 10007KT P6SM FEW025=



000
FTUS42 TJSJ 281139
TAFISX
TAF
TISX 281139Z 2812/2912 09011KT P6SM FEW025
     FM281300 10018KT P6SM FEW025
     FM282300 07010KT P6SM FEW025=



000
FTUS42 TJSJ 280534
TAFJMZ
TAF
TJMZ 280534Z 2806/2906 07006KT P6SM FEW040
     FM281600 28010KT P6SM VCSH SCT025 BKN040
     FM282230 07005KT P6SM FEW025
      AMD NOT SKED=



000
FTUS42 TJSJ 280534
TAFISX
TAF
TISX 280534Z 2806/2906 06008KT P6SM FEW025
     FM281300 10017G25KT P6SM FEW025
     FM282300 07010KT P6SM FEW025=



000
FTUS42 TJSJ 280534
TAFKPK
TAF
TKPK 280534Z 2806/2906 08011KT P6SM FEW020
     FM281200 08015KT P6SM SCT022
      AMD NOT SKED TIL 281100=



000
FTUS42 TJSJ 280534
TAFIST
TAF
TIST 280534Z 2806/2906 08010KT P6SM FEW025
     FM281300 11014G21KT P6SM FEW030
     FM282300 08010KT P6SM FEW025=



000
FTUS42 TJSJ 280534
TAFJSJ
TAF
TJSJ 280534Z 2806/2906 09010KT P6SM FEW025
     FM281430 08017G24KT P6SM FEW030
     FM282230 09009KT P6SM FEW025=



000
FTUS42 TJSJ 280534
TAFJPS
TAF
TJPS 280534Z 2806/2906 06005KT P6SM FEW030
     FM281430 14010KT P6SM FEW030
     FM282230 VRB05KT P6SM FEW030
      AMD NOT SKED 2812/2903=



000
FTUS42 TJSJ 280534
TAFNCM
TAF
TNCM 280534Z 2806/2906 09009KT P6SM FEW020
     FM281230 10013G21KT P6SM FEW020
     FM290000 09009KT P6SM FEW020=



000
FTUS42 TJSJ 280534
TAFJBQ
TAF
TJBQ 280534Z 2806/2906 10010KT P6SM FEW025
      TEMPO 2806/2808 -SHRA BKN020
     FM281430 08018G26KT P6SM FEW025
     FM282330 09010KT P6SM FEW025
      AMD NOT SKED TIL 281100=



000
FTUS42 TJSJ 280534
TAFJSJ
TAF
TJSJ 280534Z 2806/2906 09010KT P6SM FEW025
     FM281430 08017G24KT P6SM FEW030
     FM282230 09009KT P6SM FEW025=



000
FTUS42 TJSJ 280534
TAFKPK
TAF
TKPK 280534Z 2806/2906 08011KT P6SM FEW020
     FM281200 08015KT P6SM SCT022
      AMD NOT SKED TIL 281100=



000
FTUS42 TJSJ 280534
TAFIST
TAF
TIST 280534Z 2806/2906 08010KT P6SM FEW025
     FM281300 11014G21KT P6SM FEW030
     FM282300 08010KT P6SM FEW025=



000
FTUS42 TJSJ 280534
TAFISX
TAF
TISX 280534Z 2806/2906 06008KT P6SM FEW025
     FM281300 10017G25KT P6SM FEW025
     FM282300 07010KT P6SM FEW025=



000
FTUS42 TJSJ 280534
TAFJBQ
TAF
TJBQ 280534Z 2806/2906 10010KT P6SM FEW025
      TEMPO 2806/2808 -SHRA BKN020
     FM281430 08018G26KT P6SM FEW025
     FM282330 09010KT P6SM FEW025
      AMD NOT SKED TIL 281100=



000
FTUS42 TJSJ 280534
TAFJPS
TAF
TJPS 280534Z 2806/2906 06005KT P6SM FEW030
     FM281430 14010KT P6SM FEW030
     FM282230 VRB05KT P6SM FEW030
      AMD NOT SKED 2812/2903=



000
FTUS42 TJSJ 280534
TAFNCM
TAF
TNCM 280534Z 2806/2906 09009KT P6SM FEW020
     FM281230 10013G21KT P6SM FEW020
     FM290000 09009KT P6SM FEW020=



000
FTUS42 TJSJ 280102 AAA
TAFJBQ
TAF AMD
TJBQ 280102Z 2801/2824 10015G25KT P6SM SCT025
     FM280330 11010KT P6SM FEW025 SCT040
     FM281430 08015G25KT P6SM FEW030 SCT050
     FM282330 11010KT P6SM FEW025
      AMD NOT SKED 2802/2811=



000
FTUS42 TJSJ 280102 AAA
TAFJBQ
TAF AMD
TJBQ 280102Z 2801/2824 10015G25KT P6SM SCT025
     FM280330 11010KT P6SM FEW025 SCT040
     FM281430 08015G25KT P6SM FEW030 SCT050
     FM282330 11010KT P6SM FEW025
      AMD NOT SKED 2802/2811=



000
FTUS42 TJSJ 272341
TAFJMZ
TAF
TJMZ 272341Z 2800/2824 07005KT P6SM FEW025
     FM281530 29010KT P6SM SCT025 BKN040
     FM282330 07005KT P6SM FEW025
      AMD NOT SKED=



000
FTUS42 TJSJ 272341
TAFKPK
TAF
TKPK 272341Z 2800/2824 08010KT P6SM FEW020
     FM281300 08015KT P6SM SCT022
      AMD NOT SKED 2802/2811=



000
FTUS42 TJSJ 272341
TAFIST
TAF
TIST 272341Z 2800/2824 08010KT P6SM FEW025
     FM281300 12015G25KT P6SM FEW030 SCT050
     FM282300 08010KT P6SM FEW025=



000
FTUS42 TJSJ 272341
TAFNCM
TAF
TNCM 272341Z 2800/2824 09008KT P6SM SCT015
     FM281300 09013KT P6SM SCT020=



000
FTUS42 TJSJ 272341
TAFISX
TAF
TISX 272341Z 2800/2824 07010KT P6SM FEW025
     FM281300 11015G25KT P6SM FEW030 SCT050
     FM282300 07010KT P6SM FEW025=



000
FTUS42 TJSJ 272341
TAFIST
TAF
TIST 272341Z 2800/2824 08010KT P6SM FEW025
     FM281300 12015G25KT P6SM FEW030 SCT050
     FM282300 08010KT P6SM FEW025=



000
FTUS42 TJSJ 272341
TAFJPS
TAF
TJPS 272341Z 2800/2824 13010G15KT P6SM FEW030
     FM280100 05005KT P6SM FEW025
     FM281430 13010G15KT P6SM FEW030 SCT060
     FM282330 05005KT P6SM FEW025
      AMD NOT SKED TIL 280300=



000
FTUS42 TJSJ 272341
TAFISX
TAF
TISX 272341Z 2800/2824 07010KT P6SM FEW025
     FM281300 11015G25KT P6SM FEW030 SCT050
     FM282300 07010KT P6SM FEW025=



000
FTUS42 TJSJ 272341
TAFKPK
TAF
TKPK 272341Z 2800/2824 08010KT P6SM FEW020
     FM281300 08015KT P6SM SCT022
      AMD NOT SKED 2802/2811=



000
FTUS42 TJSJ 272341
TAFJSJ
TAF
TJSJ 272341Z 2800/2824 11010KT P6SM FEW025 SCT040
     FM281430 07015G25KT P6SM FEW030 SCT050
     FM282330 11010KT P6SM FEW025=



000
FTUS42 TJSJ 272341
TAFJBQ
TAF
TJBQ 272341Z 2800/2824 10018G25KT P6SM SCT025
     FM280100 11010KT P6SM FEW025 SCT040
     FM281430 08015G25KT P6SM FEW030 SCT050
     FM282330 11010KT P6SM FEW025
      AMD NOT SKED 2802/2811=



000
FTUS42 TJSJ 272341
TAFJMZ
TAF
TJMZ 272341Z 2800/2824 07005KT P6SM FEW025
     FM281530 29010KT P6SM SCT025 BKN040
     FM282330 07005KT P6SM FEW025
      AMD NOT SKED=



000
FTUS42 TJSJ 272341
TAFJPS
TAF
TJPS 272341Z 2800/2824 13010G15KT P6SM FEW030
     FM280100 05005KT P6SM FEW025
     FM281430 13010G15KT P6SM FEW030 SCT060
     FM282330 05005KT P6SM FEW025
      AMD NOT SKED TIL 280300=



000
FTUS42 TJSJ 272341
TAFNCM
TAF
TNCM 272341Z 2800/2824 09008KT P6SM SCT015
     FM281300 09013KT P6SM SCT020=



000
FTUS42 TJSJ 272341
TAFJBQ
TAF
TJBQ 272341Z 2800/2824 10018G25KT P6SM SCT025
     FM280100 11010KT P6SM FEW025 SCT040
     FM281430 08015G25KT P6SM FEW030 SCT050
     FM282330 11010KT P6SM FEW025
      AMD NOT SKED 2802/2811=



000
FTUS42 TJSJ 272341
TAFJSJ
TAF
TJSJ 272341Z 2800/2824 11010KT P6SM FEW025 SCT040
     FM281430 07015G25KT P6SM FEW030 SCT050
     FM282330 11010KT P6SM FEW025=



000
FTUS42 TJSJ 271911 AAA
TAFIST
TAF AMD
TIST 271911Z 2719/2818 10017KT P6SM FEW030
     FM272300 09010KT P6SM FEW025
     FM281300 09012G22KT P6SM FEW030=



000
FTUS42 TJSJ 271911 AAA
TAFIST
TAF AMD
TIST 271911Z 2719/2818 10017KT P6SM FEW030
     FM272300 09010KT P6SM FEW025
     FM281300 09012G22KT P6SM FEW030=



000
FTUS42 TJSJ 271907 AAB
TAFJMZ
TAF AMD
TJMZ 271907Z 2719/2818 27010KT P6SM VCSH SCT025
      TEMPO 2719/2720 VRB10KT 5SM SHRA BKN030
     FM272230 08006KT P6SM SCT025 SCT040
     FM281400 27010KT P6SM SCT025
      AMD NOT SKED=



000
FTUS42 TJSJ 271802 AAA
TAFJMZ
TAF AMD
TJMZ 271802Z 2718/2818 27010KT P6SM VCSH SCT025
      TEMPO 2718/2719 VRB10KT 5SM SHRA BKN030
     FM272230 08006KT P6SM SCT025 SCT040
     FM281400 27010KT P6SM SCT025
      AMD NOT SKED=



000
FTUS42 TJSJ 271738
TAFIST
TAF
TIST 271738Z 2718/2818 08017KT P6SM FEW030
     FM272300 09010KT P6SM FEW025
     FM281300 09012G22KT P6SM FEW030=



000
FTUS42 TJSJ 271738
TAFKPK
TAF
TKPK 271738Z 2718/2818 07014KT P6SM SCT020
      AMD NOT SKED 2802/2811=



000
FTUS42 TJSJ 271738
TAFNCM
TAF
TNCM 271738Z 2718/2818 09012KT P6SM SCT020=



000
FTUS42 TJSJ 271738
TAFJMZ
TAF
TJMZ 271738Z 2718/2818 27010KT P6SM SCT025
     FM272230 08006KT P6SM SCT025 SCT040
     FM281400 27010KT P6SM SCT025
      AMD NOT SKED=



000
FTUS42 TJSJ 271738
TAFISX
TAF
TISX 271738Z 2718/2818 10019KT P6SM SCT025
     FM272300 08010KT P6SM FEW025
     FM281330 10016KT P6SM SCT025=



000
FTUS42 TJSJ 271738
TAFJBQ
TAF
TJBQ 271738Z 2718/2818 08017KT P6SM SCT025
     FM280100 11008KT P6SM FEW025 FEW050
     FM281330 08017KT P6SM SCT025
      AMD NOT SKED 2802/2811=



000
FTUS42 TJSJ 271738
TAFJPS
TAF
TJPS 271738Z 2718/2818 14015KT P6SM FEW030 SCT060
     FM272330 06006KT P6SM FEW030
     FM281330 14012KT P6SM FEW030 SCT060
      AMD NOT SKED TIL 280300=



000
FTUS42 TJSJ 271738
TAFJSJ
TAF
TJSJ 271738Z 2718/2818 08016KT P6SM SCT025
     FM272300 09008KT P6SM SCT030
     FM281330 08016KT P6SM SCT025=



000
FTUS42 TJSJ 271130
TAFJSJ
TAF
TJSJ 271130Z 2712/2812 13005KT P6SM FEW025
     FM271330 08012KT P6SM SCT025
     FM272200 10006KT P6SM SCT030=



000
FTUS42 TJSJ 271130
TAFJMZ
TAF
TJMZ 271130Z 2712/2812 VRB04KT P6SM FEW030
     FM271530 27010KT P6SM SCT025
     FM272230 08006KT P6SM SCT025 SCT040
      AMD NOT SKED=



000
FTUS42 TJSJ 271130
TAFNCM
TAF
TNCM 271130Z 2712/2812 09006KT P6SM FEW019
     FM271300 11012KT P6SM SCT020
     FM272300 09010KT P6SM FEW020=



000
FTUS42 TJSJ 271130
TAFJPS
TAF
TJPS 271130Z 2712/2812 06006KT P6SM FEW030
     FM271500 13012KT P6SM FEW030 SCT060
     FM272330 06006KT P6SM FEW030
      AMD NOT SKED TIL 280300=



000
FTUS42 TJSJ 271130
TAFJBQ
TAF
TJBQ 271130Z 2712/2812 11007KT P6SM FEW025
     FM271400 08013KT P6SM SCT025
     FM272300 10007KT P6SM FEW025 FEW050
      AMD NOT SKED 2802/2811=



000
FTUS42 TJSJ 271130
TAFIST
TAF
TIST 271130Z 2712/2812 07009KT P6SM SCT025
     FM271330 12012G22KT P6SM FEW030
     FM272300 09010KT P6SM FEW025=



000
FTUS42 TJSJ 271130
TAFISX
TAF
TISX 271130Z 2712/2812 10013G23KT P6SM SCT025
     FM272300 08009KT P6SM FEW025=



000
FTUS42 TJSJ 271130
TAFJSJ
TAF
TJSJ 271130Z 2712/2812 13005KT P6SM FEW025
     FM271330 08012KT P6SM SCT025
     FM272200 10006KT P6SM SCT030=



000
FTUS42 TJSJ 271130
TAFKPK
TAF
TKPK 271130Z 2712/2812 07012KT P6SM SCT020
     FM272200 06010KT P6SM FEW018
      AMD NOT SKED 2802/2811=



000
FTUS42 TJSJ 271130
TAFKPK
TAF
TKPK 271130Z 2712/2812 07012KT P6SM SCT020
     FM272200 06010KT P6SM FEW018
      AMD NOT SKED 2802/2811=



000
FTUS42 TJSJ 271130
TAFJPS
TAF
TJPS 271130Z 2712/2812 06006KT P6SM FEW030
     FM271500 13012KT P6SM FEW030 SCT060
     FM272330 06006KT P6SM FEW030
      AMD NOT SKED TIL 280300=



000
FTUS42 TJSJ 271130
TAFJMZ
TAF
TJMZ 271130Z 2712/2812 VRB04KT P6SM FEW030
     FM271530 27010KT P6SM SCT025
     FM272230 08006KT P6SM SCT025 SCT040
      AMD NOT SKED=



000
FTUS42 TJSJ 271130
TAFJBQ
TAF
TJBQ 271130Z 2712/2812 11007KT P6SM FEW025
     FM271400 08013KT P6SM SCT025
     FM272300 10007KT P6SM FEW025 FEW050
      AMD NOT SKED 2802/2811=



000
FTUS42 TJSJ 271130
TAFISX
TAF
TISX 271130Z 2712/2812 10013G23KT P6SM SCT025
     FM272300 08009KT P6SM FEW025=



000
FTUS42 TJSJ 271130
TAFNCM
TAF
TNCM 271130Z 2712/2812 09006KT P6SM FEW019
     FM271300 11012KT P6SM SCT020
     FM272300 09010KT P6SM FEW020=



000
FTUS42 TJSJ 271130
TAFIST
TAF
TIST 271130Z 2712/2812 07009KT P6SM SCT025
     FM271330 12012G22KT P6SM FEW030
     FM272300 09010KT P6SM FEW025=



000
FTUS42 TJSJ 270535
TAFJBQ
TAF
TJBQ 270535Z 2706/2806 11005KT P6SM FEW025
     FM271400 08013KT P6SM SCT025
     FM272300 10007KT P6SM FEW025 FEW050
      AMD NOT SKED TIL 271100=



000
FTUS42 TJSJ 270535
TAFJSJ
TAF
TJSJ 270535Z 2706/2806 10005KT P6SM SCT025
     FM271300 08012KT P6SM SCT025
     FM272200 10006KT P6SM SCT030=



000
FTUS42 TJSJ 270535
TAFNCM
TAF
TNCM 270535Z 2706/2806 08007KT P6SM FEW020
     FM271300 11012KT P6SM SCT020
     FM272300 09010KT P6SM FEW020=



000
FTUS42 TJSJ 270535
TAFJPS
TAF
TJPS 270535Z 2706/2806 00000KT P6SM FEW030
     FM271500 13012KT P6SM FEW030 SCT060
     FM272330 06006KT P6SM FEW030=



000
FTUS42 TJSJ 270535
TAFISX
TAF
TISX 270535Z 2706/2806 07008KT P6SM FEW030
     FM271300 11012G18KT P6SM SCT025
     FM272300 08009KT P6SM FEW025=



000
FTUS42 TJSJ 270535
TAFJMZ
TAF
TJMZ 270535Z 2706/2806 VRB04KT P6SM FEW030
     FM271530 27010KT P6SM SCT025
     FM272230 08006KT P6SM SCT025 SCT040
      AMD NOT SKED=



000
FTUS42 TJSJ 270535
TAFIST
TAF
TIST 270535Z 2706/2806 09009KT P6SM SCT025
     FM271300 12012G18KT P6SM FEW030
     FM272300 09010KT P6SM FEW025=



000
FTUS42 TJSJ 270535
TAFKPK
TAF
TKPK 270535Z 2706/2806 05011KT P6SM FEW020
     FM271300 11012KT P6SM SCT020
     FM272200 06010KT P6SM FEW018
      AMD NOT SKED TIL 271100=



000
FTUS42 TJSJ 262323
TAFKPK
TAF
TKPK 262323Z 2700/2724 05011KT P6SM FEW022
     FM271300 11012KT P6SM SCT020
     FM272200 06010KT P6SM FEW018
      AMD NOT SKED 2702/2711=



000
FTUS42 TJSJ 262323
TAFJSJ
TAF
TJSJ 262323Z 2700/2724 09012KT P6SM FEW035 SCT120
     FM271300 08012KT P6SM SCT025
     FM272200 10006KT P6SM SCT030=



000
FTUS42 TJSJ 262323
TAFJPS
TAF
TJPS 262323Z 2700/2724 15014KT P6SM FEW030 SCT060
     FM271500 13012KT P6SM FEW030 SCT060
     FM272330 06006KT P6SM FEW030
      AMD NOT SKED TIL 270300=



000
FTUS42 TJSJ 262323
TAFISX
TAF
TISX 262323Z 2700/2724 10013KT P6SM SCT030
     FM271300 11012G18KT P6SM SCT025
     FM272300 08009KT P6SM FEW025=



000
FTUS42 TJSJ 262323
TAFIST
TAF
TIST 262323Z 2700/2724 11008KT P6SM SCT024
     FM271300 12012G18KT P6SM FEW030
     FM272300 09010KT P6SM FEW025=



000
FTUS42 TJSJ 262323
TAFJMZ
TAF
TJMZ 262323Z 2700/2724 06005KT P6SM FEW030
     FM271530 27010KT P6SM SCT025
     FM272230 08006KT P6SM SCT025 SCT040
      AMD NOT SKED=



000
FTUS42 TJSJ 262323
TAFNCM
TAF
TNCM 262323Z 2700/2724 08010KT P6SM FEW020
     FM271300 11012KT P6SM SCT020
     FM272300 09010KT P6SM FEW020=



000
FTUS42 TJSJ 262323
TAFJBQ
TAF
TJBQ 262323Z 2700/2724 08015KT P6SM SCT025 SCT040
     FM271400 08013KT P6SM SCT025
     FM272300 10007KT P6SM FEW025 FEW050
      AMD NOT SKED 2702/2711=



000
FTUS42 TJSJ 261739
TAFJPS
TAF
TJPS 261739Z 2618/2718 15014KT P6SM FEW030 SCT060
     FM262330 06006KT P6SM FEW030
     FM271500 13012KT P6SM FEW030 SCT060
      AMD NOT SKED TIL 270300=



000
FTUS42 TJSJ 261739
TAFJMZ
TAF
TJMZ 261739Z 2618/2718 06005KT P6SM FEW030
     FM262230 08006KT P6SM SCT025 SCT040
     FM271530 27010KT P6SM SCT025
      AMD NOT SKED 2622/2715=



000
FTUS42 TJSJ 261739
TAFJSJ
TAF
TJSJ 261739Z 2618/2718 07018G25KT P6SM SCT025
     FM262200 10006KT P6SM SCT030
     FM271300 08012KT P6SM SCT025=



000
FTUS42 TJSJ 261739
TAFKPK
TAF
TKPK 261739Z 2618/2718 08013KT P6SM SCT018
     FM262200 06010KT P6SM FEW018=



000
FTUS42 TJSJ 261739
TAFJSJ
TAF
TJSJ 261739Z 2618/2718 07018G25KT P6SM SCT025
     FM262200 10006KT P6SM SCT030
     FM271300 08012KT P6SM SCT025=



000
FTUS42 TJSJ 261739
TAFJPS
TAF
TJPS 261739Z 2618/2718 15014KT P6SM FEW030 SCT060
     FM262330 06006KT P6SM FEW030
     FM271500 13012KT P6SM FEW030 SCT060
      AMD NOT SKED TIL 270300=



000
FTUS42 TJSJ 261739
TAFIST
TAF
TIST 261739Z 2618/2718 10015G22KT P6SM FEW024 SCT035
     FM262300 09010KT P6SM FEW025
     FM271300 12012G18KT P6SM FEW030=



000
FTUS42 TJSJ 261739
TAFNCM
TAF
TNCM 261739Z 2618/2718 10012KT P6SM FEW019
     FM262300 09010KT P6SM FEW020
     FM271300 11012KT P6SM SCT020=



000
FTUS42 TJSJ 261739
TAFIST
TAF
TIST 261739Z 2618/2718 10015G22KT P6SM FEW024 SCT035
     FM262300 09010KT P6SM FEW025
     FM271300 12012G18KT P6SM FEW030=



000
FTUS42 TJSJ 261739
TAFNCM
TAF
TNCM 261739Z 2618/2718 10012KT P6SM FEW019
     FM262300 09010KT P6SM FEW020
     FM271300 11012KT P6SM SCT020=



000
FTUS42 TJSJ 261739
TAFJBQ
TAF
TJBQ 261739Z 2618/2718 08015G20KT P6SM SCT025 SCT040
     FM262300 10007KT P6SM FEW025 FEW050
     FM271400 08013KT P6SM SCT025
      AMD NOT SKED 2702/2711=



000
FTUS42 TJSJ 261739
TAFISX
TAF
TISX 261739Z 2618/2718 11016G21KT P6SM SCT025
     FM262300 08009KT P6SM FEW025
     FM271300 11012G18KT P6SM SCT025=



000
FTUS42 TJSJ 261739
TAFJMZ
TAF
TJMZ 261739Z 2618/2718 06005KT P6SM FEW030
     FM262230 08006KT P6SM SCT025 SCT040
     FM271530 27010KT P6SM SCT025
      AMD NOT SKED 2622/2715=



000
FTUS42 TJSJ 261739
TAFJBQ
TAF
TJBQ 261739Z 2618/2718 08015G20KT P6SM SCT025 SCT040
     FM262300 10007KT P6SM FEW025 FEW050
     FM271400 08013KT P6SM SCT025
      AMD NOT SKED 2702/2711=



000
FTUS42 TJSJ 261739
TAFISX
TAF
TISX 261739Z 2618/2718 11016G21KT P6SM SCT025
     FM262300 08009KT P6SM FEW025
     FM271300 11012G18KT P6SM SCT025=



000
FTUS42 TJSJ 261739
TAFKPK
TAF
TKPK 261739Z 2618/2718 08013KT P6SM SCT018
     FM262200 06010KT P6SM FEW018=



000
FTUS42 TJSJ 261129
TAFKPK
TAF
TKPK 261129Z 2612/2712 08013KT P6SM SCT018
     FM261300 08015KT P6SM FEW020
     FM262200 06010KT P6SM FEW018=



000
FTUS42 TJSJ 261129
TAFKPK
TAF
TKPK 261129Z 2612/2712 08013KT P6SM SCT018
     FM261300 08015KT P6SM FEW020
     FM262200 06010KT P6SM FEW018=



000
FTUS42 TJSJ 261129
TAFJBQ
TAF
TJBQ 261129Z 2612/2712 VRB05KT P6SM SCT029
     FM261500 08015G20KT P6SM SCT025 SCT040
     FM262300 10007KT P6SM FEW025 FEW050=



000
FTUS42 TJSJ 261129
TAFJPS
TAF
TJPS 261129Z 2612/2712 09006KT P6SM VCSH SCT030
     FM261500 15014KT P6SM FEW030 SCT060
     FM262330 06006KT P6SM FEW030
      AMD NOT SKED TIL 270300=



000
FTUS42 TJSJ 261129
TAFJSJ
TAF
TJSJ 261129Z 2612/2712 10006KT P6SM SCT025
     FM261300 08018G25KT P6SM FEW025 SCT050
     FM262300 09009KT P6SM FEW025=



000
FTUS42 TJSJ 261129
TAFJMZ
TAF
TJMZ 261129Z 2612/2712 06005KT P6SM FEW030
     FM261530 25010KT P6SM VCSH SCT025 BKN040
     FM262230 08006KT P6SM SCT025 SCT040
      AMD NOT SKED=



000
FTUS42 TJSJ 261129
TAFNCM
TAF
TNCM 261129Z 2612/2712 11010KT P6SM FEW019
     FM261300 11014KT P6SM SCT020
     FM262300 09010KT P6SM FEW020=



000
FTUS42 TJSJ 261129
TAFIST
TAF
TIST 261129Z 2612/2712 10015G22KT P6SM FEW024 SCT035
     FM261300 12015G22KT P6SM FEW030
     FM262300 09010KT P6SM FEW025=



000
FTUS42 TJSJ 261129
TAFJSJ
TAF
TJSJ 261129Z 2612/2712 10006KT P6SM SCT025
     FM261300 08018G25KT P6SM FEW025 SCT050
     FM262300 09009KT P6SM FEW025=



000
FTUS42 TJSJ 261129
TAFJMZ
TAF
TJMZ 261129Z 2612/2712 06005KT P6SM FEW030
     FM261530 25010KT P6SM VCSH SCT025 BKN040
     FM262230 08006KT P6SM SCT025 SCT040
      AMD NOT SKED=



000
FTUS42 TJSJ 261129
TAFISX
TAF
TISX 261129Z 2612/2712 10014KT P6SM VCSH SCT022 SCT030
     FM261300 11016G21KT P6SM SCT025
     FM262300 08009KT P6SM FEW025=



000
FTUS42 TJSJ 261129
TAFJPS
TAF
TJPS 261129Z 2612/2712 09006KT P6SM VCSH SCT030
     FM261500 15014KT P6SM FEW030 SCT060
     FM262330 06006KT P6SM FEW030
      AMD NOT SKED TIL 270300=



000
FTUS42 TJSJ 261129
TAFJBQ
TAF
TJBQ 261129Z 2612/2712 VRB05KT P6SM SCT029
     FM261500 08015G20KT P6SM SCT025 SCT040
     FM262300 10007KT P6SM FEW025 FEW050=



000
FTUS42 TJSJ 261129
TAFISX
TAF
TISX 261129Z 2612/2712 10014KT P6SM VCSH SCT022 SCT030
     FM261300 11016G21KT P6SM SCT025
     FM262300 08009KT P6SM FEW025=



000
FTUS42 TJSJ 261129
TAFNCM
TAF
TNCM 261129Z 2612/2712 11010KT P6SM FEW019
     FM261300 11014KT P6SM SCT020
     FM262300 09010KT P6SM FEW020=



000
FTUS42 TJSJ 261129
TAFIST
TAF
TIST 261129Z 2612/2712 10015G22KT P6SM FEW024 SCT035
     FM261300 12015G22KT P6SM FEW030
     FM262300 09010KT P6SM FEW025=



    US Dept of Commerce
    National Oceanic and Atmospheric Administration
    National Weather Service
    1325 East West Highway
    Silver Spring, MD 20910
    Page Author: NWS Internet Services Team
Disclaimer
Information Quality
Credits
Glossary
Privacy Policy
Freedom of Information Act (FOIA)
About Us
Career Opportunities